Time,TemperatureF,DewpointF,PressureIn,WindDirection,WindDirectionDegrees,WindSpeedMPH,WindSpeedGustMPH,Humidity,HourlyPrecipIn,Conditions,Clouds,dailyrainin,SoftwareType,DateUTC
2013-05-27 00:01:00,46.0,29.0,-100.00,North,360,0.0,0.0,52,0.00,,,-99.99,,2013-05-27 06:01:00,
2013-05-27 00:11:00,46.0,29.0,-100.00,ENE,62,3.0,6.0,51,0.00,,,-99.99,,2013-05-27 06:11:00,
2013-05-27 00:21:00,46.0,29.0,-100.00,NNW,344,1.0,3.0,51,0.00,,,-99.99,,2013-05-27 06:21:00,
2013-05-27 00:31:00,44.0,30.0,-100.00,NNE,14,0.0,0.0,57,0.00,,,-99.99,,2013-05-27 06:31:00,
2013-05-27 00:41:00,44.0,30.0,-100.00,NNW,333,0.0,0.0,57,0.00,,,-99.99,,2013-05-27 06:41:00,
2013-05-27 00:52:00,45.0,29.0,-100.00,WSW,244,1.0,7.0,55,0.00,,,-99.99,,2013-05-27 06:52:00,
2013-05-27 01:01:00,45.0,30.0,-100.00,WSW,253,7.0,12.0,55,0.00,,,-99.99,,2013-05-27 07:01:00,
2013-05-27 01:11:00,42.0,31.0,-100.00,WNW,285,7.0,14.0,65,0.00,,,-99.99,,2013-05-27 07:11:00,
2013-05-27 01:21:00,42.0,31.0,-100.00,West,281,9.0,16.0,63,0.00,,,-99.99,,2013-05-27 07:21:00,
2013-05-27 01:31:00,43.0,32.0,-100.00,WSW,257,19.0,31.0,66,0.00,,,-99.99,,2013-05-27 07:31:00,
2013-05-27 01:41:00,41.0,34.0,-100.00,WSW,254,21.0,38.0,76,0.07,,,-99.99,,2013-05-27 07:41:00,
2013-05-27 01:52:00,38.0,37.0,-100.00,West,270,12.0,24.0,98,0.08,,,-99.99,,2013-05-27 07:52:00,
2013-05-27 02:01:00,38.0,37.0,-100.00,West,271,9.0,14.0,98,0.01,,,-99.99,,2013-05-27 08:01:00,
2013-05-27 02:11:00,37.0,37.0,-100.00,West,270,12.0,17.0,100,0.00,,,-99.99,,2013-05-27 08:11:00,
2013-05-27 02:21:00,36.0,36.0,-100.00,West,267,9.0,14.0,100,0.00,,,-99.99,,2013-05-27 08:21:00,
2013-05-27 02:41:00,38.0,37.0,-100.00,WSW,251,16.0,20.0,96,0.00,,,-99.99,,2013-05-27 08:41:00,
2013-05-27 02:51:00,38.0,36.0,-100.00,WSW,251,14.0,19.0,96,0.00,,,-99.99,,2013-05-27 08:51:00,
2013-05-27 03:01:00,38.0,36.0,-100.00,WSW,247,14.0,18.0,94,0.00,,,-99.99,,2013-05-27 09:01:00,
2013-05-27 03:11:00,38.0,36.0,-100.00,WSW,250,13.0,19.0,93,0.00,,,-99.99,,2013-05-27 09:11:00,
2013-05-27 03:21:00,38.0,36.0,-100.00,WSW,256,11.0,15.0,94,0.00,,,-99.99,,2013-05-27 09:21:00,
2013-05-27 03:33:00,38.0,36.0,-100.00,WSW,241,12.0,17.0,91,0.00,,,-99.99,,2013-05-27 09:33:00,
2013-05-27 03:42:00,39.0,36.0,-100.00,SW,229,10.0,15.0,88,0.00,,,-99.99,,2013-05-27 09:42:00,
2013-05-27 03:52:00,39.0,35.0,-100.00,SW,233,9.0,14.0,87,0.00,,,-99.99,,2013-05-27 09:52:00,
2013-05-27 04:02:00,40.0,34.0,-100.00,WSW,240,9.0,14.0,80,0.00,,,-99.99,,2013-05-27 10:02:00,
2013-05-27 04:12:00,39.0,33.0,-100.00,WSW,251,9.0,14.0,79,0.00,,,-99.99,,2013-05-27 10:12:00,
2013-05-27 04:22:00,38.0,34.0,-100.00,West,270,7.0,12.0,86,0.00,,,-99.99,,2013-05-27 10:22:00,
2013-05-27 04:32:00,38.0,33.0,-100.00,West,267,4.0,7.0,85,0.00,,,-99.99,,2013-05-27 10:32:00,
2013-05-27 04:41:00,39.0,32.0,-100.00,SW,233,8.0,12.0,76,0.00,,,-99.99,,2013-05-27 10:41:00,
2013-05-27 04:52:00,39.0,32.0,-100.00,WSW,247,11.0,15.0,75,0.00,,,-99.99,,2013-05-27 10:52:00,
2013-05-27 05:02:00,39.0,32.0,-100.00,WSW,250,9.0,13.0,77,0.00,,,-99.99,,2013-05-27 11:02:00,
2013-05-27 05:11:00,39.0,32.0,-100.00,SW,236,9.0,14.0,76,0.00,,,-99.99,,2013-05-27 11:11:00,
2013-05-27 05:21:00,39.0,32.0,-100.00,WSW,241,11.0,17.0,75,0.00,,,-99.99,,2013-05-27 11:21:00,
2013-05-27 05:31:00,39.0,32.0,-100.00,WSW,257,12.0,16.0,77,0.00,,,-99.99,,2013-05-27 11:31:00,
2013-05-27 05:41:00,38.0,33.0,-100.00,West,263,10.0,15.0,81,0.00,,,-99.99,,2013-05-27 11:41:00,
2013-05-27 05:51:00,37.0,32.0,-100.00,West,268,9.0,12.0,82,0.00,,,-99.99,,2013-05-27 11:51:00,
2013-05-27 06:01:00,38.0,33.0,-100.00,West,261,12.0,21.0,83,-99.99,,,-99.99,,2013-05-27 12:01:00,
2013-05-27 06:11:00,37.0,33.0,-100.00,West,267,13.0,26.0,88,0.00,,,-99.99,,2013-05-27 12:11:00,
2013-05-27 06:21:00,36.0,35.0,-100.00,West,265,10.0,17.0,97,0.00,,,-99.99,,2013-05-27 12:21:00,
2013-05-27 06:31:00,35.0,35.0,-100.00,West,270,9.0,16.0,98,0.00,,,-99.99,,2013-05-27 12:31:00,
2013-05-27 06:42:00,36.0,35.0,-100.00,West,277,7.0,12.0,94,0.00,,,-99.99,,2013-05-27 12:42:00,
2013-05-27 06:52:00,36.0,34.0,-100.00,West,280,9.0,14.0,93,0.00,,,-99.99,,2013-05-27 12:52:00,
2013-05-27 07:01:00,36.0,34.0,-100.00,West,278,9.0,14.0,93,0.00,,,-99.99,,2013-05-27 13:01:00,
2013-05-27 07:11:00,36.0,34.0,-100.00,West,264,9.0,13.0,91,0.00,,,-99.99,,2013-05-27 13:11:00,
2013-05-27 07:21:00,37.0,34.0,-100.00,West,270,8.0,12.0,88,0.00,,,-99.99,,2013-05-27 13:21:00,
2013-05-27 07:32:00,37.0,34.0,-100.00,West,260,9.0,12.0,91,0.00,,,-99.99,,2013-05-27 13:32:00,
2013-05-27 07:41:00,38.0,33.0,-100.00,West,272,7.0,12.0,83,0.00,,,-99.99,,2013-05-27 13:41:00,
2013-05-27 07:52:00,39.0,33.0,-100.00,West,274,6.0,11.0,79,0.00,,,-99.99,,2013-05-27 13:52:00,
2013-05-27 08:01:00,39.0,33.0,-100.00,West,272,6.0,11.0,77,0.00,,,-99.99,,2013-05-27 14:01:00,
2013-05-27 08:11:00,40.0,33.0,-100.00,West,274,7.0,12.0,75,0.00,,,-99.99,,2013-05-27 14:11:00,
2013-05-27 08:21:00,40.0,31.0,-100.00,West,280,7.0,12.0,70,0.00,,,-99.99,,2013-05-27 14:21:00,
2013-05-27 08:31:00,41.0,32.0,-100.00,West,281,6.0,9.0,70,0.00,,,-99.99,,2013-05-27 14:31:00,
2013-05-27 08:41:00,42.0,32.0,-100.00,WNW,285,6.0,10.0,68,0.00,,,-99.99,,2013-05-27 14:41:00,
2013-05-27 08:51:00,42.0,32.0,-100.00,WNW,288,6.0,10.0,67,0.00,,,-99.99,,2013-05-27 14:51:00,
2013-05-27 09:01:00,43.0,31.0,-100.00,WNW,288,6.0,8.0,63,0.00,,,-99.99,,2013-05-27 15:01:00,
2013-05-27 09:11:00,44.0,31.0,-100.00,WNW,291,5.0,8.0,62,0.00,,,-99.99,,2013-05-27 15:11:00,
2013-05-27 09:21:00,43.0,32.0,-100.00,WNW,291,6.0,10.0,65,0.00,,,-99.99,,2013-05-27 15:21:00,
2013-05-27 09:32:00,43.0,33.0,-100.00,WNW,284,7.0,14.0,67,0.00,,,-99.99,,2013-05-27 15:32:00,
2013-05-27 09:43:00,42.0,31.0,-100.00,West,260,7.0,12.0,64,0.00,,,-99.99,,2013-05-27 15:43:00,
2013-05-27 09:53:00,42.0,31.0,-100.00,West,270,9.0,24.0,65,0.00,,,-99.99,,2013-05-27 15:53:00,
2013-05-27 10:02:00,34.0,33.0,-100.00,West,275,17.0,29.0,97,0.13,,,-99.99,,2013-05-27 16:02:00,
2013-05-27 10:12:00,33.0,33.0,-100.00,West,268,17.0,27.0,100,0.11,,,-99.99,,2013-05-27 16:12:00,
2013-05-27 10:22:00,33.0,33.0,-100.00,West,265,17.0,31.0,100,0.03,,,-99.99,,2013-05-27 16:22:00,
2013-05-27 10:32:00,33.0,33.0,-100.00,WSW,251,16.0,24.0,100,0.03,,,-99.99,,2013-05-27 16:32:00,
2013-05-27 10:42:00,33.0,33.0,-100.00,West,275,12.0,19.0,100,0.00,,,-99.99,,2013-05-27 16:42:00,
2013-05-27 10:52:00,34.0,33.0,-100.00,West,264,14.0,20.0,100,0.00,,,-99.99,,2013-05-27 16:52:00,
2013-05-27 11:02:00,36.0,36.0,-100.00,West,264,14.0,22.0,100,0.00,,,-99.99,,2013-05-27 17:02:00,
2013-05-27 11:11:00,36.0,36.0,-100.00,West,261,19.0,27.0,100,0.00,,,-99.99,,2013-05-27 17:11:00,
2013-05-27 11:21:00,37.0,36.0,-100.00,West,260,21.0,29.0,94,0.00,,,-99.99,,2013-05-27 17:21:00,
2013-05-27 11:31:00,38.0,34.0,-100.00,West,261,21.0,30.0,84,0.00,,,-99.99,,2013-05-27 17:31:00,
2013-05-27 11:42:00,39.0,36.0,-100.00,West,260,23.0,37.0,89,0.00,,,-99.99,,2013-05-27 17:42:00,
2013-05-27 11:52:00,41.0,31.0,-100.00,West,261,22.0,31.0,69,0.00,,,-99.99,,2013-05-27 17:52:00,
2013-05-27 12:01:00,41.0,28.0,-100.00,West,261,24.0,44.0,59,0.00,,,-99.99,,2013-05-27 18:01:00,
2013-05-27 12:11:00,41.0,26.0,-100.00,WSW,244,40.0,56.0,55,0.00,,,-99.99,,2013-05-27 18:11:00,
2013-05-27 12:21:00,41.0,25.0,-100.00,WSW,246,34.0,48.0,53,0.00,,,-99.99,,2013-05-27 18:21:00,
2013-05-27 12:32:00,42.0,25.0,-100.00,WSW,251,30.0,42.0,50,0.00,,,-99.99,,2013-05-27 18:32:00,
2013-05-27 12:41:00,42.0,24.0,-100.00,WSW,251,30.0,49.0,49,0.00,,,-99.99,,2013-05-27 18:41:00,
2013-05-27 12:52:00,42.0,23.0,-100.00,WSW,251,31.0,48.0,48,-99.99,,,-99.99,,2013-05-27 18:52:00,
2013-05-27 13:01:00,43.0,25.0,-100.00,WSW,257,28.0,43.0,49,0.00,,,-99.99,,2013-05-27 19:01:00,
2013-05-27 13:11:00,44.0,25.0,-100.00,West,270,21.0,45.0,48,0.00,,,-99.99,,2013-05-27 19:11:00,
2013-05-27 13:21:00,44.0,25.0,-100.00,West,268,22.0,32.0,47,0.00,,,-99.99,,2013-05-27 19:21:00,
2013-05-27 13:31:00,46.0,28.0,-100.00,West,268,22.0,38.0,49,0.00,,,-99.99,,2013-05-27 19:31:00,
2013-05-27 13:41:00,45.0,28.0,-100.00,West,261,29.0,47.0,51,0.00,,,-99.99,,2013-05-27 19:41:00,
2013-05-27 13:52:00,-999.0,-99.9,-100.00,West,270,21.0,39.0,-999,-99.99,,,-99.99,,2013-05-27 19:52:00,
2013-05-27 14:01:00,45.0,27.0,-100.00,West,264,28.0,39.0,49,0.00,,,-99.99,,2013-05-27 20:01:00,
2013-05-27 14:11:00,-999.0,-99.9,-100.00,West,267,20.0,36.0,-999,-99.99,,,-99.99,,2013-05-27 20:11:00,
2013-05-27 14:21:00,45.0,27.0,-100.00,West,272,18.0,30.0,48,0.00,,,-99.99,,2013-05-27 20:21:00,
2013-05-27 14:32:00,47.0,26.0,-100.00,West,272,16.0,30.0,44,-99.99,,,-99.99,,2013-05-27 20:32:00,
2013-05-27 14:41:00,48.0,28.0,-100.00,West,275,17.0,30.0,47,0.00,,,-99.99,,2013-05-27 20:41:00,
2013-05-27 14:52:00,47.0,26.0,-100.00,West,274,14.0,30.0,43,0.00,,,-99.99,,2013-05-27 20:52:00,
2013-05-27 15:01:00,46.0,27.0,-100.00,West,267,21.0,34.0,48,0.00,,,-99.99,,2013-05-27 21:01:00,
2013-05-27 15:11:00,48.0,28.0,-100.00,WSW,254,21.0,33.0,47,0.00,,,-99.99,,2013-05-27 21:11:00,
2013-05-27 15:21:00,47.0,27.0,-100.00,West,265,21.0,34.0,44,0.00,,,-99.99,,2013-05-27 21:21:00,
2013-05-27 15:32:00,48.0,26.0,-100.00,West,265,19.0,34.0,41,0.00,,,-99.99,,2013-05-27 21:32:00,
2013-05-27 15:42:00,49.0,26.0,-100.00,West,264,21.0,34.0,39,0.00,,,-99.99,,2013-05-27 21:42:00,
2013-05-27 15:53:00,50.0,27.0,-100.00,West,265,19.0,32.0,41,0.00,,,-99.99,,2013-05-27 21:53:00,
2013-05-27 16:02:00,50.0,24.0,-100.00,West,271,17.0,32.0,36,0.00,,,-99.99,,2013-05-27 22:02:00,
2013-05-27 16:12:00,48.0,25.0,-100.00,West,261,21.0,37.0,40,0.00,,,-99.99,,2013-05-27 22:12:00,
2013-05-27 16:22:00,49.0,25.0,-100.00,WSW,251,24.0,34.0,38,0.00,,,-99.99,,2013-05-27 22:22:00,
2013-05-27 16:33:00,-999.0,-99.9,-100.00,West,272,19.0,27.0,-999,-99.99,,,-99.99,,2013-05-27 22:33:00,
2013-05-27 16:42:00,51.0,25.0,-100.00,West,264,19.0,34.0,37,0.00,,,-99.99,,2013-05-27 22:42:00,
2013-05-27 16:52:00,50.0,25.0,-100.00,West,264,21.0,36.0,38,0.00,,,-99.99,,2013-05-27 22:52:00,
2013-05-27 17:02:00,49.0,24.0,-100.00,West,267,19.0,32.0,38,0.00,,,-99.99,,2013-05-27 23:02:00,
2013-05-27 17:11:00,49.0,25.0,-100.00,West,272,16.0,27.0,38,0.00,,,-99.99,,2013-05-27 23:11:00,
2013-05-27 17:22:00,48.0,24.0,-100.00,West,261,19.0,32.0,38,0.00,,,-99.99,,2013-05-27 23:22:00,
2013-05-27 17:32:00,49.0,24.0,-100.00,WSW,256,20.0,30.0,36,0.00,,,-99.99,,2013-05-27 23:32:00,
2013-05-27 17:42:00,48.0,25.0,-100.00,West,260,18.0,31.0,40,0.00,,,-99.99,,2013-05-27 23:42:00,
2013-05-27 17:52:00,47.0,25.0,-100.00,WSW,248,23.0,34.0,41,0.00,,,-99.99,,2013-05-27 23:52:00,
2013-05-27 18:01:00,47.0,24.0,-100.00,WSW,250,26.0,41.0,39,0.00,,,-99.99,,2013-05-28 00:01:00,
2013-05-27 18:11:00,48.0,25.0,-100.00,WSW,251,25.0,41.0,40,0.00,,,-99.99,,2013-05-28 00:11:00,
2013-05-27 18:21:00,49.0,26.0,-100.00,WSW,258,21.0,32.0,41,0.00,,,-99.99,,2013-05-28 00:21:00,
2013-05-27 18:31:00,50.0,25.0,-100.00,WSW,254,19.0,29.0,37,0.00,,,-99.99,,2013-05-28 00:31:00,
2013-05-27 18:41:00,51.0,25.0,-100.00,WSW,256,19.0,34.0,36,0.00,,,-99.99,,2013-05-28 00:41:00,
2013-05-27 18:51:00,51.0,24.0,-100.00,West,270,14.0,26.0,35,0.00,,,-99.99,,2013-05-28 00:51:00,
2013-05-27 19:01:00,51.0,26.0,-100.00,West,270,16.0,27.0,37,0.00,,,-99.99,,2013-05-28 01:01:00,
2013-05-27 19:11:00,51.0,25.0,-100.00,West,267,16.0,27.0,36,0.00,,,-99.99,,2013-05-28 01:11:00,
2013-05-27 19:21:00,51.0,26.0,-100.00,West,265,13.0,24.0,36,0.00,,,-99.99,,2013-05-28 01:21:00,
2013-05-27 19:31:00,51.0,25.0,-100.00,West,267,15.0,25.0,37,0.00,,,-99.99,,2013-05-28 01:31:00,
2013-05-27 19:41:00,51.0,26.0,-100.00,West,265,14.0,22.0,37,0.00,,,-99.99,,2013-05-28 01:41:00,
2013-05-27 19:52:00,50.0,24.0,-100.00,West,263,14.0,26.0,36,0.00,,,-99.99,,2013-05-28 01:52:00,
2013-05-27 20:02:00,49.0,23.0,-100.00,West,272,9.0,19.0,36,0.00,,,-99.99,,2013-05-28 02:02:00,
2013-05-27 20:11:00,48.0,24.0,-100.00,WSW,253,10.0,17.0,39,0.00,,,-99.99,,2013-05-28 02:11:00,
2013-05-27 20:21:00,48.0,24.0,-100.00,WSW,248,11.0,16.0,39,0.00,,,-99.99,,2013-05-28 02:21:00,
2013-05-27 20:32:00,47.0,24.0,-100.00,WSW,247,12.0,19.0,41,0.00,,,-99.99,,2013-05-28 02:32:00,
2013-05-27 20:41:00,46.0,23.0,-100.00,WSW,244,16.0,22.0,40,0.00,,,-99.99,,2013-05-28 02:41:00,
2013-05-27 20:51:00,46.0,23.0,-100.00,WSW,244,15.0,23.0,40,0.00,,,-99.99,,2013-05-28 02:51:00,
2013-05-27 21:01:00,45.0,24.0,-100.00,WSW,246,11.0,16.0,42,0.00,,,-99.99,,2013-05-28 03:01:00,
2013-05-27 21:11:00,45.0,23.0,-100.00,WSW,241,11.0,16.0,42,0.00,,,-99.99,,2013-05-28 03:11:00,
2013-05-27 21:21:00,45.0,24.0,-100.00,WSW,244,11.0,15.0,43,0.00,,,-99.99,,2013-05-28 03:21:00,
2013-05-27 21:32:00,44.0,24.0,-100.00,WSW,240,9.0,14.0,43,-99.99,,,-99.99,,2013-05-28 03:32:00,
2013-05-27 21:43:00,44.0,24.0,-100.00,WSW,239,8.0,17.0,43,0.00,,,-99.99,,2013-05-28 03:43:00,
2013-05-27 21:53:00,44.0,24.0,-100.00,WSW,246,10.0,17.0,44,0.00,,,-99.99,,2013-05-28 03:53:00,
2013-05-27 22:02:00,44.0,24.0,-100.00,WSW,247,9.0,19.0,45,0.00,,,-99.99,,2013-05-28 04:02:00,
2013-05-27 22:12:00,43.0,24.0,-100.00,WSW,237,7.0,15.0,46,0.00,,,-99.99,,2013-05-28 04:12:00,
2013-05-27 22:22:00,43.0,24.0,-100.00,SW,234,7.0,12.0,47,0.00,,,-99.99,,2013-05-28 04:22:00,
2013-05-27 22:33:00,43.0,24.0,-100.00,WSW,244,7.0,12.0,46,0.00,,,-99.99,,2013-05-28 04:33:00,
2013-05-27 22:42:00,43.0,24.0,-100.00,WSW,240,7.0,13.0,46,0.00,,,-99.99,,2013-05-28 04:42:00,
2013-05-27 22:52:00,42.0,24.0,-100.00,WSW,256,6.0,14.0,47,0.00,,,-99.99,,2013-05-28 04:52:00,
2013-05-27 23:01:00,42.0,24.0,-100.00,West,261,7.0,13.0,48,0.00,,,-99.99,,2013-05-28 05:01:00,
2013-05-27 23:12:00,42.0,25.0,-100.00,West,267,4.0,12.0,50,0.00,,,-99.99,,2013-05-28 05:12:00,
2013-05-27 23:22:00,41.0,25.0,-100.00,West,272,2.0,8.0,52,0.00,,,-99.99,,2013-05-28 05:22:00,
2013-05-27 23:32:00,41.0,25.0,-100.00,South,178,0.0,4.0,52,0.00,,,-99.99,,2013-05-28 05:32:00,
2013-05-27 23:42:00,42.0,24.0,-100.00,WSW,244,2.0,8.0,49,0.00,,,-99.99,,2013-05-28 05:42:00,
2013-05-27 23:52:00,42.0,23.0,-100.00,West,264,6.0,9.0,48,0.00,,,-99.99,,2013-05-28 05:52:00,